Time;durP1;ratioP1;P1;durP2;ratioP2;P2;SDS_P1;SDS_P2;PMS_P1;PMS_P2;Temp;Humidity;BMP_temperature;BMP_pressure;BME280_temperature;BME280_humidity;BME280_pressure;Samples;Min_cycle;Max_cycle;Signal;HPM_P1;HPM_P2
2022/04/20 00:01:02;;;;;;;6.05;3.33;;;8.50;99.90;;;;;;5044327;28;20052;-74
2022/04/20 00:03:28;;;;;;;6.20;3.33;;;8.40;99.90;;;;;;5045179;28;20052;-74
2022/04/20 00:05:53;;;;;;;5.78;3.05;;;8.40;99.90;;;;;;5044986;28;20453;-74
2022/04/20 00:08:19;;;;;;;7.88;3.55;;;8.40;99.90;;;;;;5041669;28;20508;-74
2022/04/20 00:10:45;;;;;;;7.32;3.17;;;8.30;99.90;;;;;;5037422;28;20055;-74
2022/04/20 00:13:10;;;;;;;6.60;2.90;;;8.30;99.90;;;;;;5041950;28;20042;-74
2022/04/20 00:15:36;;;;;;;10.32;3.70;;;8.30;99.90;;;;;;5043546;28;20401;-74
2022/04/20 00:18:02;;;;;;;7.43;3.50;;;8.20;99.90;;;;;;5043378;28;20033;-74
2022/04/20 00:20:28;;;;;;;7.55;3.65;;;8.10;99.90;;;;;;5047566;28;20041;-74
2022/04/20 00:22:53;;;;;;;5.78;3.28;;;8.10;99.90;;;;;;5040104;28;20090;-74
2022/04/20 00:25:19;;;;;;;8.90;3.78;;;8.10;99.90;;;;;;5041903;28;20037;-74
2022/04/20 00:27:44;;;;;;;7.38;3.40;;;8.00;99.90;;;;;;5032786;28;20152;-74
2022/04/20 00:30:12;;;;;;;7.15;3.78;;;8.00;99.90;;;;;;5044873;28;20064;-74
2022/04/20 00:32:38;;;;;;;7.38;3.55;;;8.00;99.90;;;;;;5043707;28;20061;-74
2022/04/20 00:35:05;;;;;;;7.25;3.30;;;7.90;99.90;;;;;;5044605;28;20052;-74
2022/04/20 00:37:33;;;;;;;8.35;4.00;;;7.90;99.90;;;;;;5050075;28;20112;-74
2022/04/20 00:39:58;;;;;;;6.75;3.53;;;7.90;99.90;;;;;;5037223;28;20044;-74
2022/04/20 00:42:27;;;;;;;7.65;3.83;;;7.80;99.90;;;;;;5039562;28;20056;-74
2022/04/20 00:44:54;;;;;;;6.78;3.78;;;7.80;99.90;;;;;;5040977;28;20477;-74
2022/04/20 00:47:20;;;;;;;7.68;3.35;;;7.80;99.90;;;;;;5037900;28;20049;-74
2022/04/20 00:49:47;;;;;;;8.77;3.53;;;7.70;99.90;;;;;;5042689;28;20488;-74
2022/04/20 00:52:13;;;;;;;9.10;3.80;;;7.70;99.90;;;;;;5040124;28;20050;-74
2022/04/20 00:54:38;;;;;;;8.27;3.95;;;7.70;99.90;;;;;;5038320;28;20060;-74
2022/04/20 00:57:05;;;;;;;7.47;3.90;;;7.70;99.90;;;;;;5038862;28;20045;-74
2022/04/20 00:59:32;;;;;;;7.90;3.50;;;7.60;99.90;;;;;;5040037;28;20103;-74
2022/04/20 01:01:58;;;;;;;7.15;3.97;;;7.60;99.90;;;;;;5042098;28;20140;-73
2022/04/20 01:04:25;;;;;;;7.72;3.83;;;7.60;99.90;;;;;;5037918;28;20413;-75
2022/04/20 01:06:51;;;;;;;9.43;4.38;;;7.60;99.90;;;;;;5035175;28;20034;-73
2022/04/20 01:09:17;;;;;;;9.70;3.97;;;7.60;99.90;;;;;;5043429;28;20547;-73
2022/04/20 01:11:43;;;;;;;9.20;3.78;;;7.50;99.90;;;;;;5046765;28;20106;-73
2022/04/20 01:14:09;;;;;;;8.18;3.72;;;7.50;99.90;;;;;;5044922;28;20467;-73
2022/04/20 01:16:35;;;;;;;5.70;3.20;;;7.40;99.90;;;;;;5042648;28;20038;-73
2022/04/20 01:19:01;;;;;;;6.80;3.78;;;7.40;99.90;;;;;;5038990;28;20118;-73
2022/04/20 01:21:27;;;;;;;8.05;3.95;;;7.40;99.90;;;;;;5037326;28;20055;-73
2022/04/20 01:23:54;;;;;;;8.35;4.45;;;7.30;99.90;;;;;;5032636;28;20466;-74
2022/04/20 01:26:19;;;;;;;7.72;4.03;;;7.30;99.90;;;;;;5040878;28;20048;-74
2022/04/20 01:28:46;;;;;;;9.00;3.78;;;7.30;99.90;;;;;;5044782;28;20041;-74
2022/04/20 01:31:17;;;;;;;10.23;4.28;;;7.20;99.90;;;;;;5043115;28;20147;-75
2022/04/20 01:33:43;;;;;;;7.65;3.85;;;7.20;99.90;;;;;;5037277;28;20045;-74
2022/04/20 01:36:10;;;;;;;7.82;3.83;;;7.20;99.90;;;;;;5045463;28;20058;-74
2022/04/20 01:38:40;;;;;;;7.72;4.13;;;7.20;99.90;;;;;;5040096;28;20496;-74
2022/04/20 01:41:06;;;;;;;8.27;3.92;;;7.10;99.90;;;;;;5041771;28;20044;-75
2022/04/20 01:43:32;;;;;;;9.35;3.90;;;7.10;99.90;;;;;;5031323;28;20041;-74
2022/04/20 01:45:58;;;;;;;8.02;3.88;;;7.10;99.90;;;;;;5035574;28;20084;-74
2022/04/20 01:48:23;;;;;;;9.95;4.60;;;7.00;99.90;;;;;;5043675;28;20073;-74
2022/04/20 01:53:34;;;;;;;8.30;3.83;;;7.00;99.90;;;;;;5046523;28;20468;-74
2022/04/20 01:56:00;;;;;;;9.80;4.00;;;6.90;99.90;;;;;;5043339;28;20037;-75
2022/04/20 01:58:27;;;;;;;8.80;4.40;;;6.90;99.90;;;;;;5046345;28;20052;-74
2022/04/20 02:00:52;;;;;;;7.90;4.10;;;6.90;99.90;;;;;;5043321;28;20098;-73
2022/04/20 02:03:18;;;;;;;8.73;4.03;;;6.80;99.90;;;;;;5043203;28;20048;-74
2022/04/20 02:05:44;;;;;;;7.95;3.60;;;6.80;99.90;;;;;;5044914;28;20044;-75
2022/04/20 02:08:10;;;;;;;8.90;3.97;;;6.70;99.90;;;;;;5038915;28;20049;-74
2022/04/20 02:10:35;;;;;;;7.28;4.20;;;6.70;99.90;;;;;;5041057;28;20041;-75
2022/04/20 02:13:01;;;;;;;8.93;4.07;;;6.70;99.90;;;;;;5042309;28;20068;-75
2022/04/20 02:15:28;;;;;;;11.52;4.10;;;6.70;99.90;;;;;;5045791;28;20088;-74
2022/04/20 02:17:53;;;;;;;8.45;3.42;;;6.60;99.90;;;;;;5044833;28;20155;-73
2022/04/20 02:20:19;;;;;;;9.15;4.18;;;6.60;99.90;;;;;;5044089;28;20192;-73
2022/04/20 02:22:45;;;;;;;9.25;4.30;;;6.60;99.90;;;;;;5038793;28;20430;-73
2022/04/20 02:25:11;;;;;;;8.07;4.05;;;6.60;99.90;;;;;;5042376;28;20134;-73
2022/04/20 02:27:37;;;;;;;14.73;4.38;;;6.60;99.90;;;;;;5044059;28;20497;-73
2022/04/20 02:30:04;;;;;;;10.98;4.88;;;6.50;99.90;;;;;;5040137;28;20040;-73
2022/04/20 02:32:29;;;;;;;7.60;4.50;;;6.50;99.90;;;;;;5042663;28;20045;-73
2022/04/20 02:34:55;;;;;;;8.05;4.40;;;6.50;99.90;;;;;;5042174;28;20508;-73
2022/04/20 02:37:21;;;;;;;8.00;4.15;;;6.50;99.90;;;;;;5046175;28;20127;-73
2022/04/20 02:39:47;;;;;;;8.60;4.35;;;6.40;99.90;;;;;;5043055;28;20473;-73
2022/04/20 02:42:13;;;;;;;8.63;3.65;;;6.50;99.90;;;;;;5043857;28;20396;-73
2022/04/20 02:44:40;;;;;;;8.52;4.38;;;6.40;99.90;;;;;;5042880;28;20034;-73
2022/04/20 02:47:06;;;;;;;8.75;3.75;;;6.40;99.90;;;;;;5039651;28;20033;-73
2022/04/20 02:49:31;;;;;;;9.85;4.40;;;6.40;99.90;;;;;;5041071;28;20048;-73
2022/04/20 02:51:57;;;;;;;7.85;4.13;;;6.40;99.90;;;;;;5046240;28;20044;-73
2022/04/20 02:54:22;;;;;;;8.52;3.60;;;6.30;99.90;;;;;;5048818;28;20120;-73
2022/04/20 02:56:48;;;;;;;8.35;3.67;;;6.30;99.90;;;;;;5044408;28;20057;-73
2022/04/20 02:59:13;;;;;;;8.82;3.80;;;6.30;99.90;;;;;;5047102;28;20509;-73
2022/04/20 03:01:39;;;;;;;11.52;4.13;;;6.30;99.90;;;;;;5039774;28;20566;-73
2022/04/20 03:04:05;;;;;;;11.20;4.65;;;6.30;99.90;;;;;;5046214;28;20061;-73
2022/04/20 03:06:31;;;;;;;8.07;4.07;;;6.30;99.90;;;;;;5045076;28;20057;-73
2022/04/20 03:08:57;;;;;;;8.70;4.72;;;6.20;99.90;;;;;;5047759;28;20037;-73
2022/04/20 03:11:22;;;;;;;8.27;3.72;;;6.20;99.90;;;;;;5044481;28;20099;-73
2022/04/20 03:13:48;;;;;;;8.75;4.20;;;6.20;99.90;;;;;;5042517;28;20448;-73
2022/04/20 03:16:15;;;;;;;7.88;4.35;;;6.20;99.90;;;;;;5048661;28;20102;-73
2022/04/20 03:18:40;;;;;;;10.60;4.22;;;6.20;99.90;;;;;;5048732;28;20579;-73
2022/04/20 03:21:06;;;;;;;7.95;4.10;;;6.10;99.90;;;;;;5040847;28;20049;-72
2022/04/20 03:23:32;;;;;;;10.25;4.80;;;6.10;99.90;;;;;;5033659;28;20456;-73
2022/04/20 03:25:57;;;;;;;8.38;3.67;;;6.10;99.90;;;;;;5046734;28;20040;-73
2022/04/20 03:28:23;;;;;;;7.63;4.07;;;6.10;99.90;;;;;;5045304;28;20064;-72
2022/04/20 03:30:49;;;;;;;10.82;4.22;;;6.10;99.90;;;;;;5047303;28;20053;-73
2022/04/20 03:33:15;;;;;;;7.07;4.35;;;6.10;99.90;;;;;;5040631;28;20045;-73
2022/04/20 03:35:40;;;;;;;9.48;3.53;;;6.10;99.90;;;;;;5044697;28;20064;-73
2022/04/20 03:38:07;;;;;;;8.48;3.97;;;6.00;99.90;;;;;;5041198;28;21755;-72
2022/04/20 03:40:32;;;;;;;7.70;4.20;;;6.00;99.90;;;;;;5032041;28;20048;-73
2022/04/20 03:42:58;;;;;;;6.75;3.75;;;6.00;99.90;;;;;;5034442;28;20037;-73
2022/04/20 03:45:24;;;;;;;7.40;4.20;;;6.00;99.90;;;;;;5039879;28;20421;-74
2022/04/20 03:47:49;;;;;;;10.43;4.35;;;6.00;99.90;;;;;;5046906;28;20402;-74
2022/04/20 03:50:15;;;;;;;8.07;4.07;;;6.00;99.90;;;;;;5041648;28;20055;-73
2022/04/20 03:52:41;;;;;;;7.70;3.85;;;6.00;99.90;;;;;;5032103;28;20137;-73
2022/04/20 03:55:07;;;;;;;6.72;3.85;;;6.00;99.90;;;;;;5036914;28;20072;-73
2022/04/20 03:57:32;;;;;;;9.63;4.20;;;6.00;99.90;;;;;;5042311;28;20088;-73
2022/04/20 03:59:58;;;;;;;9.80;5.05;;;5.90;99.90;;;;;;5038057;28;20092;-72
2022/04/20 04:02:24;;;;;;;7.65;4.47;;;5.90;99.90;;;;;;5033012;28;20052;-73
2022/04/20 04:04:49;;;;;;;9.43;4.22;;;5.90;99.90;;;;;;5043309;28;20407;-73
2022/04/20 04:07:15;;;;;;;8.02;3.38;;;5.90;99.90;;;;;;5044281;28;20053;-73
2022/04/20 04:09:41;;;;;;;9.75;4.28;;;5.90;99.90;;;;;;5048285;28;20041;-74
2022/04/20 04:12:07;;;;;;;7.05;3.67;;;5.90;99.90;;;;;;5046701;28;20465;-73
2022/04/20 04:14:37;;;;;;;8.90;4.22;;;5.90;99.90;;;;;;5046969;28;20557;-74
2022/04/20 04:17:03;;;;;;;8.27;3.63;;;5.90;99.90;;;;;;5046029;28;20044;-74
2022/04/20 04:19:29;;;;;;;8.75;4.07;;;5.80;99.90;;;;;;5046256;28;20037;-74
2022/04/20 04:21:56;;;;;;;9.25;4.20;;;5.90;99.90;;;;;;5046909;28;20467;-73
2022/04/20 04:24:36;;;;;;;9.38;4.78;;;5.80;99.90;;;;;;5040557;28;20119;-74
2022/04/20 04:27:04;;;;;;;7.28;3.83;;;5.90;99.90;;;;;;5045176;28;20055;-73
2022/04/20 04:29:31;;;;;;;6.95;4.00;;;5.80;99.90;;;;;;5042647;28;20447;-74
2022/04/20 04:31:58;;;;;;;7.45;4.55;;;5.80;99.90;;;;;;5047742;28;20041;-74
2022/04/20 04:34:23;;;;;;;6.93;3.88;;;5.80;99.90;;;;;;5043590;28;20562;-74
2022/04/20 04:36:50;;;;;;;7.57;3.85;;;5.80;99.90;;;;;;5043876;28;20068;-74
2022/04/20 04:39:18;;;;;;;7.55;4.25;;;5.80;99.90;;;;;;5044472;28;20130;-74
2022/04/20 04:41:47;;;;;;;8.05;4.05;;;5.80;99.90;;;;;;5042235;28;20116;-73
2022/04/20 04:44:12;;;;;;;9.02;4.55;;;5.80;99.90;;;;;;5041628;28;20049;-74
2022/04/20 04:49:22;;;;;;;6.70;4.15;;;5.80;99.90;;;;;;5038627;28;20053;-73
2022/04/20 04:51:48;;;;;;;6.32;3.80;;;5.80;99.90;;;;;;5046978;28;20037;-74
2022/04/20 04:54:15;;;;;;;6.57;3.55;;;5.80;99.90;;;;;;5043530;28;20053;-73
2022/04/20 04:56:41;;;;;;;8.07;4.20;;;5.80;99.90;;;;;;5041402;28;20488;-73
2022/04/20 04:59:06;;;;;;;7.80;3.97;;;5.80;99.90;;;;;;5044261;28;20057;-74
2022/04/20 05:01:32;;;;;;;7.95;4.07;;;5.80;99.90;;;;;;5042728;28;20049;-72
2022/04/20 05:03:58;;;;;;;7.60;4.10;;;5.80;99.90;;;;;;5046348;28;20379;-74
2022/04/20 05:06:23;;;;;;;8.88;3.92;;;5.80;99.90;;;;;;5037614;28;20060;-74
2022/04/20 05:08:49;;;;;;;8.70;3.80;;;5.90;99.90;;;;;;5040229;28;20045;-74
2022/04/20 05:11:14;;;;;;;7.35;3.85;;;5.90;99.90;;;;;;5044171;28;20415;-74
2022/04/20 05:13:40;;;;;;;8.02;4.20;;;5.90;99.90;;;;;;5044360;28;20049;-74
2022/04/20 05:16:06;;;;;;;9.60;3.92;;;5.90;99.90;;;;;;5043554;28;20079;-74
2022/04/20 05:18:32;;;;;;;8.43;4.50;;;5.90;99.90;;;;;;5045202;28;20056;-74
2022/04/20 05:20:57;;;;;;;9.07;4.15;;;5.90;99.90;;;;;;5047806;28;20076;-74
2022/04/20 05:23:23;;;;;;;9.52;5.03;;;5.90;99.90;;;;;;5041841;28;20408;-74
2022/04/20 05:25:48;;;;;;;8.02;3.60;;;5.90;99.90;;;;;;5043093;28;20144;-74
2022/04/20 05:28:14;;;;;;;7.82;3.70;;;6.00;99.90;;;;;;5043793;28;20049;-74
2022/04/20 05:30:40;;;;;;;7.55;4.00;;;6.00;99.90;;;;;;5043624;28;20037;-74
2022/04/20 05:33:06;;;;;;;8.85;4.32;;;6.00;99.90;;;;;;5043382;28;20056;-74
2022/04/20 05:35:32;;;;;;;7.53;4.03;;;6.00;99.90;;;;;;5040937;28;20037;-74
2022/04/20 05:43:26;;;;;;;10.13;4.07;;;6.10;99.90;;;;;;5039132;28;20052;-74
2022/04/20 05:45:52;;;;;;;8.10;3.85;;;6.10;99.90;;;;;;5039952;28;20032;-73
2022/04/20 05:48:17;;;;;;;8.18;4.00;;;6.10;99.90;;;;;;5033947;28;20045;-73
2022/04/20 05:50:43;;;;;;;10.40;4.38;;;6.20;99.90;;;;;;5041931;28;20041;-73
2022/04/20 05:53:10;;;;;;;9.98;4.15;;;6.20;99.90;;;;;;5039863;28;20042;-74
2022/04/20 05:55:35;;;;;;;7.13;4.07;;;6.20;99.90;;;;;;5031391;28;20128;-73
2022/04/20 05:58:01;;;;;;;7.05;3.78;;;6.30;99.90;;;;;;5033250;28;20163;-73
2022/04/20 06:00:27;;;;;;;7.88;4.25;;;6.30;99.90;;;;;;5035956;28;20118;-74
2022/04/20 06:02:54;;;;;;;8.98;4.38;;;6.40;99.90;;;;;;5037889;28;20124;-74
2022/04/20 06:05:20;;;;;;;8.23;3.97;;;6.40;99.90;;;;;;5036143;28;20111;-72
2022/04/20 06:07:47;;;;;;;9.77;4.75;;;6.40;99.90;;;;;;5040374;28;20041;-72
2022/04/20 06:10:12;;;;;;;8.98;4.05;;;6.50;99.90;;;;;;5042879;28;20540;-72
2022/04/20 06:12:38;;;;;;;8.57;4.20;;;6.50;99.90;;;;;;5043262;28;20143;-74
2022/04/20 06:15:06;;;;;;;9.63;4.57;;;6.50;99.90;;;;;;5044644;28;20048;-74
2022/04/20 06:17:32;;;;;;;9.82;4.53;;;6.60;99.90;;;;;;5047816;28;20049;-71
2022/04/20 06:19:57;;;;;;;9.10;4.22;;;6.60;99.90;;;;;;5042841;28;20472;-73
2022/04/20 06:22:23;;;;;;;9.45;4.50;;;6.70;99.90;;;;;;5033785;28;20119;-74
2022/04/20 06:24:49;;;;;;;8.68;4.65;;;6.70;99.90;;;;;;5043967;28;20129;-72
2022/04/20 06:27:15;;;;;;;9.82;4.88;;;6.80;99.90;;;;;;5049177;28;20040;-72
2022/04/20 06:29:41;;;;;;;9.50;5.07;;;6.90;99.90;;;;;;5053386;28;20076;-72
2022/04/20 06:32:07;;;;;;;8.90;4.88;;;6.90;99.90;;;;;;5058267;28;20037;-73
2022/04/20 06:34:32;;;;;;;8.30;4.72;;;7.20;99.90;;;;;;5039838;28;20047;-73
2022/04/20 06:36:58;;;;;;;8.93;4.53;;;7.30;99.90;;;;;;5044855;28;20528;-73
2022/04/20 06:39:24;;;;;;;9.10;5.38;;;7.40;99.90;;;;;;5049909;28;20037;-73
2022/04/20 06:41:51;;;;;;;10.10;5.35;;;7.50;99.90;;;;;;5052584;28;20048;-73
2022/04/20 06:44:17;;;;;;;9.57;5.45;;;7.60;99.90;;;;;;5052799;28;20052;-73
2022/04/20 06:46:43;;;;;;;10.18;5.32;;;7.60;99.90;;;;;;5051938;28;20051;-73
2022/04/20 06:49:09;;;;;;;10.68;5.50;;;7.70;99.90;;;;;;5057890;28;20412;-73
2022/04/20 06:59:48;;;;;;;10.75;6.03;;;8.00;99.90;;;;;;5051788;28;20057;-73
2022/04/20 07:02:14;;;;;;;10.27;5.97;;;8.00;99.90;;;;;;5051526;28;20057;-72
2022/04/20 07:04:40;;;;;;;10.35;5.78;;;8.10;99.90;;;;;;5047090;28;20132;-72
2022/04/20 07:07:05;;;;;;;7.93;4.90;;;8.20;99.90;;;;;;5037272;28;20127;-73
2022/04/20 07:09:31;;;;;;;11.75;5.35;;;8.30;99.90;;;;;;5051767;28;20144;-73
2022/04/20 07:11:56;;;;;;;10.23;5.70;;;8.30;99.90;;;;;;5044594;28;20045;-73
2022/04/20 07:14:22;;;;;;;10.55;5.32;;;8.40;99.90;;;;;;5052782;28;20056;-73
2022/04/20 07:16:48;;;;;;;10.18;5.28;;;8.40;99.90;;;;;;5052475;28;20052;-73
2022/04/20 07:19:13;;;;;;;9.80;4.85;;;8.50;99.90;;;;;;5052264;28;20076;-73
2022/04/20 07:21:39;;;;;;;10.38;4.55;;;8.50;99.90;;;;;;5052047;28;20495;-72
2022/04/20 07:24:05;;;;;;;8.27;4.03;;;8.60;99.90;;;;;;5033137;28;20045;-72
2022/04/20 07:26:30;;;;;;;7.65;3.80;;;8.70;99.90;;;;;;5051994;28;20068;-73
2022/04/20 07:28:56;;;;;;;8.63;4.13;;;8.70;99.90;;;;;;5051220;28;20369;-73
2022/04/20 07:31:22;;;;;;;10.20;3.88;;;8.80;99.90;;;;;;5053677;28;20068;-72
2022/04/20 07:33:47;;;;;;;6.65;3.13;;;8.80;99.90;;;;;;5052959;28;20048;-73
2022/04/20 07:36:13;;;;;;;8.02;3.22;;;8.90;99.90;;;;;;5052095;28;20442;-71
2022/04/20 07:38:38;;;;;;;7.53;3.78;;;9.00;99.90;;;;;;5051735;28;20041;-72
2022/04/20 07:41:04;;;;;;;7.53;3.03;;;9.00;99.90;;;;;;5053265;28;20041;-72
2022/04/20 07:43:30;;;;;;;6.85;3.35;;;9.10;99.90;;;;;;5052460;28;20069;-72
2022/04/20 07:45:55;;;;;;;8.68;3.55;;;9.20;99.90;;;;;;5051368;28;20136;-72
2022/04/20 07:48:21;;;;;;;8.80;3.20;;;9.20;99.90;;;;;;5051988;28;20095;-72
2022/04/20 07:50:47;;;;;;;6.22;3.30;;;9.30;99.90;;;;;;5051041;28;20045;-72
2022/04/20 07:53:12;;;;;;;5.47;3.00;;;9.40;99.90;;;;;;5051400;28;20819;-72
2022/04/20 07:55:38;;;;;;;5.45;2.70;;;9.50;99.90;;;;;;5050843;28;20055;-72
2022/04/20 07:58:04;;;;;;;8.68;3.00;;;9.60;99.90;;;;;;5051029;28;20048;-73
2022/04/20 08:00:30;;;;;;;6.03;2.28;;;9.70;99.90;;;;;;5049600;28;20077;-73
2022/04/20 08:03:16;;;;;;;4.05;2.05;;;9.80;99.90;;;;;;5046090;28;20080;-73
2022/04/20 08:05:47;;;;;;;5.75;2.03;;;9.90;99.90;;;;;;5047141;28;20102;-73
2022/04/20 08:08:12;;;;;;;6.80;2.17;;;9.90;99.90;;;;;;5053515;28;20076;-72
2022/04/20 08:10:39;;;;;;;7.72;2.20;;;9.70;99.90;;;;;;5044222;28;20502;-73
2022/04/20 08:14:09;;;;;;;4.95;2.45;;;10.20;99.80;;;;;;5050250;28;20029;-73
2022/04/20 08:15:51;;;;;;;5.25;2.42;;;10.30;99.90;;;;;;5039695;28;20053;-73
2022/04/20 08:18:16;;;;;;;4.72;2.00;;;10.40;99.90;;;;;;5039820;28;20037;-73
2022/04/20 08:20:42;;;;;;;6.20;2.05;;;10.50;99.60;;;;;;5050151;28;20045;-73
2022/04/20 08:23:08;;;;;;;5.60;1.90;;;10.60;98.20;;;;;;5045866;28;20083;-73
2022/04/20 08:25:33;;;;;;;11.43;2.50;;;10.80;98.50;;;;;;5040326;28;20056;-73
2022/04/20 08:27:59;;;;;;;4.68;2.00;;;10.90;97.90;;;;;;5047887;28;20064;-73
2022/04/20 08:30:25;;;;;;;4.18;1.63;;;11.00;96.40;;;;;;5045387;28;20052;-73
2022/04/20 08:32:52;;;;;;;2.42;1.27;;;11.20;95.70;;;;;;5051223;28;20495;-73
2022/04/20 08:35:19;;;;;;;2.97;1.42;;;11.30;94.80;;;;;;5048106;28;20056;-73
2022/04/20 08:37:45;;;;;;;4.35;1.73;;;11.40;94.20;;;;;;5051862;28;20131;-73
2022/04/20 08:40:12;;;;;;;6.10;1.73;;;11.50;93.50;;;;;;5051117;28;20456;-74
2022/04/20 08:42:39;;;;;;;2.95;1.42;;;11.60;95.30;;;;;;5049602;28;20045;-73
2022/04/20 08:45:05;;;;;;;4.60;1.65;;;12.30;94.30;;;;;;5051966;28;20072;-74
2022/04/20 08:47:39;;;;;;;5.57;1.45;;;11.90;93.30;;;;;;5044612;28;20272;-70
2022/04/20 08:50:07;;;;;;;3.65;1.40;;;12.10;93.20;;;;;;5044850;28;20045;-71
2022/04/20 08:52:38;;;;;;;4.18;1.52;;;12.20;92.80;;;;;;5050122;28;20033;-71
2022/04/20 08:55:11;;;;;;;2.65;1.00;;;12.30;88.10;;;;;;5041567;28;20106;-71
2022/04/20 08:57:38;;;;;;;4.65;1.48;;;12.50;88.00;;;;;;5042437;28;20389;-71
2022/04/20 09:00:06;;;;;;;5.30;1.33;;;12.60;88.20;;;;;;5039894;28;20060;-71
2022/04/20 09:02:32;;;;;;;4.25;1.58;;;12.70;85.20;;;;;;5037884;28;20061;-71
2022/04/20 09:04:58;;;;;;;3.55;1.40;;;12.80;85.30;;;;;;5042284;28;20048;-72
2022/04/20 09:07:25;;;;;;;3.83;1.38;;;12.90;84.10;;;;;;5043684;28;20045;-71
2022/04/20 09:09:52;;;;;;;4.20;1.25;;;13.00;83.40;;;;;;5044266;28;20052;-72
2022/04/20 09:12:20;;;;;;;3.65;1.20;;;13.10;81.90;;;;;;5046886;28;20057;-71
2022/04/20 09:14:48;;;;;;;5.50;1.48;;;13.20;80.90;;;;;;5038599;28;20055;-71
2022/04/20 09:17:22;;;;;;;3.70;1.10;;;13.30;79.40;;;;;;5046405;28;20091;-72
2022/04/20 09:19:51;;;;;;;3.13;1.10;;;13.50;78.90;;;;;;5035067;28;20045;-71
2022/04/20 09:22:27;;;;;;;1.98;0.77;;;13.60;74.40;;;;;;5039743;28;20055;-71
2022/04/20 09:24:59;;;;;;;3.58;1.08;;;13.70;73.40;;;;;;5039884;28;20834;-71
2022/04/20 09:27:27;;;;;;;3.92;0.93;;;13.80;73.80;;;;;;5040664;28;20523;-72
2022/04/20 09:29:57;;;;;;;2.97;1.00;;;13.90;71.20;;;;;;5042851;28;20040;-73
2022/04/20 09:32:41;;;;;;;3.20;1.10;;;13.90;71.30;;;;;;5045112;28;20052;-72
2022/04/20 09:35:13;;;;;;;3.63;1.20;;;14.00;69.70;;;;;;5043381;28;20077;-72
2022/04/20 09:37:43;;;;;;;2.47;0.90;;;14.10;71.60;;;;;;5038237;28;20088;-72
2022/04/20 09:40:11;;;;;;;4.45;1.25;;;14.20;72.70;;;;;;5042559;28;20132;-72
2022/04/20 09:42:38;;;;;;;2.60;1.02;;;14.30;72.20;;;;;;5041391;28;20045;-72
2022/04/20 09:45:06;;;;;;;4.43;1.35;;;14.40;70.60;;;;;;5040356;28;20060;-72
2022/04/20 09:50:25;;;;;;;3.20;0.90;;;14.60;68.60;;;;;;5039209;28;20052;-72
2022/04/20 09:52:58;;;;;;;2.60;1.00;;;14.60;68.70;;;;;;5040410;28;20072;-72
2022/04/20 09:55:30;;;;;;;2.35;1.13;;;14.70;70.10;;;;;;5040710;28;20103;-72
2022/04/20 09:58:24;;;;;;;2.88;1.05;;;14.90;70.10;;;;;;5041956;28;20051;-72
2022/04/20 10:00:54;;;;;;;2.30;1.00;;;15.10;67.50;;;;;;5048821;28;20044;-72
2022/04/20 10:03:31;;;;;;;5.13;1.40;;;15.10;66.00;;;;;;5055527;28;20467;-73
2022/04/20 10:05:58;;;;;;;3.13;1.08;;;15.20;66.80;;;;;;5053180;28;20052;-73
2022/04/20 10:08:24;;;;;;;5.45;1.30;;;15.20;67.80;;;;;;5055290;28;20045;-73
2022/04/20 10:10:56;;;;;;;3.20;1.17;;;15.40;68.30;;;;;;5046978;28;20052;-70
2022/04/20 10:13:26;;;;;;;3.83;1.42;;;15.50;68.90;;;;;;5048119;28;20053;-73
2022/04/20 10:16:06;;;;;;;4.35;1.10;;;15.50;65.00;;;;;;5053755;28;20067;-73
2022/04/20 10:18:37;;;;;;;3.42;1.20;;;15.60;67.80;;;;;;5053280;28;20041;-73
2022/04/20 10:21:07;;;;;;;3.63;1.30;;;15.80;68.70;;;;;;5049258;28;20084;-74
2022/04/20 10:23:34;;;;;;;3.42;1.10;;;15.90;68.10;;;;;;5042170;28;20478;-72
2022/04/20 10:26:02;;;;;;;4.47;1.30;;;16.00;67.50;;;;;;5045826;28;20501;-73
2022/04/20 10:28:48;;;;;;;10.82;1.55;;;16.10;66.90;;;;;;5044103;28;20045;-74
2022/04/20 10:31:40;;;;;;;4.20;1.45;;;16.20;64.40;;;;;;5049151;28;20053;-74
2022/04/20 10:34:06;;;;;;;4.38;1.17;;;16.30;67.40;;;;;;5046756;28;20076;-73
2022/04/20 10:36:33;;;;;;;5.90;1.48;;;16.40;65.50;;;;;;5054808;28;20053;-75
2022/04/20 10:39:22;;;;;;;4.93;1.38;;;16.40;65.50;;;;;;5045564;28;20091;-75
2022/04/20 10:42:16;;;;;;;3.00;1.15;;;16.70;62.40;;;;;;5046010;28;20033;-75
2022/04/20 10:45:11;;;;;;;2.22;0.88;;;16.70;61.40;;;;;;5047994;28;20517;-75
2022/04/20 10:47:42;;;;;;;3.30;1.33;;;16.80;62.60;;;;;;5055011;28;20418;-74
2022/04/20 10:50:28;;;;;;;3.08;1.30;;;16.90;62.10;;;;;;5056055;28;20046;-75
2022/04/20 10:53:06;;;;;;;2.92;1.05;;;17.00;62.10;;;;;;5048479;28;20099;-75
2022/04/20 10:55:32;;;;;;;3.60;1.33;;;17.10;61.90;;;;;;5042859;28;20052;-75
2022/04/20 10:58:15;;;;;;;6.05;1.17;;;17.10;61.40;;;;;;5046377;28;20037;-75
2022/04/20 11:00:42;;;;;;;2.92;1.25;;;17.20;60.30;;;;;;5046490;28;20059;-74
2022/04/20 11:03:10;;;;;;;4.03;1.00;;;17.40;61.70;;;;;;5047658;28;20045;-75
2022/04/20 11:05:57;;;;;;;3.88;1.20;;;17.50;62.50;;;;;;5049752;28;20045;-75
2022/04/20 11:08:24;;;;;;;3.20;1.55;;;17.70;61.70;;;;;;5051454;28;20076;-75
2022/04/20 11:19:50;;;;;;;3.35;1.20;;;18.00;61.50;;;;;;5041383;28;20045;-75
2022/04/20 11:22:16;;;;;;;3.78;1.20;;;18.10;59.70;;;;;;5050567;28;20041;-74
2022/04/20 11:24:42;;;;;;;2.85;1.20;;;18.10;57.40;;;;;;5047762;28;20103;-75
2022/04/20 11:27:08;;;;;;;4.20;1.48;;;18.20;59.40;;;;;;5051123;28;20041;-73
2022/04/20 11:29:35;;;;;;;4.07;1.27;;;18.30;59.00;;;;;;5046795;28;20054;-73
2022/04/20 11:32:09;;;;;;;2.80;1.13;;;18.40;59.80;;;;;;5052417;28;20483;-73
2022/04/20 11:34:36;;;;;;;;;;;18.50;57.20;;;;;;5046769;28;20042;-74
2022/04/20 11:37:06;;;;;;;3.92;1.17;;;18.40;55.50;;;;;;5047615;28;20014;-72
2022/04/20 11:39:33;;;;;;;2.58;1.30;;;18.50;57.40;;;;;;5046142;28;20045;-73
2022/04/20 11:42:05;;;;;;;3.53;1.02;;;18.60;58.00;;;;;;5044978;28;20137;-73
2022/04/20 11:44:35;;;;;;;2.03;0.93;;;18.60;55.60;;;;;;5044909;28;20144;-73
2022/04/20 11:47:09;;;;;;;3.13;0.93;;;18.70;55.30;;;;;;5043584;28;20045;-73
2022/04/20 11:49:41;;;;;;;2.30;1.08;;;19.00;55.80;;;;;;5047457;28;20670;-73
2022/04/20 11:52:09;;;;;;;3.10;1.00;;;18.80;55.00;;;;;;5049249;28;20037;-73
2022/04/20 11:54:36;;;;;;;3.70;1.30;;;18.90;57.10;;;;;;5055702;28;20037;-74
2022/04/20 11:57:03;;;;;;;3.05;1.15;;;18.90;57.50;;;;;;5048430;28;20045;-74
2022/04/20 11:59:29;;;;;;;5.97;1.02;;;19.00;57.00;;;;;;5049078;28;20057;-74
2022/04/20 12:01:55;;;;;;;4.43;1.33;;;19.10;57.60;;;;;;5051137;28;20124;-74
2022/04/20 12:04:29;;;;;;;3.00;1.38;;;19.10;57.30;;;;;;5045557;28;20480;-74
2022/04/20 12:06:57;;;;;;;4.35;1.00;;;19.30;56.30;;;;;;5046805;28;20544;-74
2022/04/20 12:09:25;;;;;;;4.20;1.00;;;19.30;56.20;;;;;;5052032;28;20119;-74
2022/04/20 12:11:52;;;;;;;2.63;0.80;;;19.30;56.40;;;;;;5046592;28;20070;-74
2022/04/20 12:14:19;;;;;;;3.35;0.98;;;19.40;55.70;;;;;;5046995;28;20056;-75
2022/04/20 12:16:50;;;;;;;2.97;0.70;;;19.40;55.00;;;;;;5049516;28;20053;-74
2022/04/20 12:19:16;;;;;;;4.22;1.00;;;19.40;56.20;;;;;;5038648;28;20065;-74
2022/04/20 12:21:44;;;;;;;2.33;0.90;;;19.50;57.10;;;;;;5045132;28;20045;-73
2022/04/20 12:24:21;;;;;;;2.10;0.90;;;19.70;57.60;;;;;;5035789;28;20396;-73
2022/04/20 12:26:50;;;;;;;3.38;0.80;;;19.60;54.70;;;;;;5049771;28;20044;-73
2022/04/20 12:29:21;;;;;;;2.85;0.80;;;19.70;55.10;;;;;;5049001;28;20056;-74
2022/04/20 12:31:51;;;;;;;2.55;0.70;;;19.80;55.10;;;;;;5051613;28;20107;-73
2022/04/20 12:34:18;;;;;;;3.55;0.70;;;19.80;54.20;;;;;;5046084;28;20045;-72
2022/04/20 12:36:54;;;;;;;2.88;0.80;;;19.90;54.30;;;;;;5052542;28;20063;-74
2022/04/20 12:39:31;;;;;;;3.10;0.80;;;19.90;54.10;;;;;;5060603;28;20503;-73
2022/04/20 12:42:07;;;;;;;1.48;0.60;;;19.90;55.90;;;;;;5053097;28;20044;-73
2022/04/20 12:44:34;;;;;;;1.50;0.65;;;20.00;54.50;;;;;;5046881;28;20400;-73
2022/04/20 12:47:06;;;;;;;1.60;0.60;;;20.00;55.50;;;;;;5050816;28;20048;-72
2022/04/20 12:49:35;;;;;;;2.50;0.90;;;20.10;55.30;;;;;;5045077;28;20869;-72
2022/04/20 12:52:10;;;;;;;4.28;1.15;;;20.20;56.40;;;;;;5025811;28;20037;-70
2022/04/20 12:54:36;;;;;;;1.95;0.80;;;20.20;56.90;;;;;;5036962;28;20049;-73
2022/04/20 13:03:10;;;;;;;2.92;0.90;;;20.30;55.20;;;;;;5045700;28;20087;-72
2022/04/20 13:05:38;;;;;;;1.60;0.90;;;20.20;57.40;;;;;;5041077;28;20484;-73
2022/04/20 13:08:05;;;;;;;2.72;1.05;;;20.30;57.90;;;;;;5046102;28;20068;-73
2022/04/20 13:10:35;;;;;;;3.00;0.90;;;20.30;59.70;;;;;;5049929;28;20452;-73
2022/04/20 13:13:00;;;;;;;3.17;1.05;;;20.40;57.60;;;;;;5047220;28;20396;-73
2022/04/20 13:15:29;;;;;;;4.03;1.00;;;20.50;56.00;;;;;;5041981;28;20061;-73
2022/04/20 13:17:57;;;;;;;3.90;1.30;;;20.50;56.70;;;;;;5051272;28;20072;-73
2022/04/20 13:20:25;;;;;;;4.57;1.10;;;20.60;57.00;;;;;;5043449;28;20053;-73
2022/04/20 13:22:53;;;;;;;2.45;1.40;;;20.70;56.60;;;;;;5048535;28;20044;-73
2022/04/20 13:28:04;;;;;;;4.65;1.52;;;20.70;57.10;;;;;;5042132;28;20044;-73
2022/04/20 13:30:39;;;;;;;3.78;1.92;;;20.60;57.70;;;;;;5042408;28;20120;-73
2022/04/20 13:33:13;;;;;;;4.60;2.10;;;20.70;57.50;;;;;;5061449;28;20044;-73
2022/04/20 13:35:40;;;;;;;4.63;2.07;;;20.70;58.70;;;;;;5036110;28;20069;-73